TimeCST,TemperatureF,Dew PointF,Humidity,Sea Level PressureIn,VisibilityMPH,Wind Direction,Wind SpeedMPH,Gust SpeedMPH,PrecipitationIn,Events,Conditions,WindDirDegrees,DateUTC
12:06 AM,-2.2,-7.6,78,30.22,10.0,Calm,Calm,-,N/A,,Mostly Cloudy,0,2012-12-27 06:06:00
12:53 AM,1.9,-2.9,80,30.32,10.0,Calm,Calm,-,N/A,,Overcast,0,2012-12-27 06:53:00
1:48 AM,-0.4,-5.8,78,30.23,10.0,Calm,Calm,-,N/A,,Partly Cloudy,0,2012-12-27 07:48:00
1:53 AM,-0.0,-5.1,79,30.32,10.0,Calm,Calm,-,N/A,,Partly Cloudy,0,2012-12-27 07:53:00
2:53 AM,-2.0,-7.1,79,30.33,10.0,Calm,Calm,-,N/A,,Clear,0,2012-12-27 08:53:00
3:53 AM,-2.9,-8.0,79,30.33,10.0,Calm,Calm,-,N/A,,Clear,0,2012-12-27 09:53:00
4:53 AM,1.9,-2.9,80,30.33,10.0,Calm,Calm,-,N/A,,Overcast,0,2012-12-27 10:53:00
5:53 AM,3.0,-2.0,80,30.33,10.0,Calm,Calm,-,N/A,,Overcast,0,2012-12-27 11:53:00
6:20 AM,3.2,-0.4,85,30.23,10.0,Calm,Calm,-,N/A,,Scattered Clouds,0,2012-12-27 12:20:00
6:41 AM,3.2,-2.2,78,30.24,10.0,Calm,Calm,-,N/A,,Mostly Cloudy,0,2012-12-27 12:41:00
6:53 AM,3.0,-2.0,80,30.34,10.0,Calm,Calm,-,N/A,,Mostly Cloudy,0,2012-12-27 12:53:00
7:13 AM,3.2,-2.2,78,30.23,10.0,Calm,Calm,-,N/A,,Scattered Clouds,0,2012-12-27 13:13:00
7:53 AM,3.9,-0.0,84,30.33,10.0,Calm,Calm,-,N/A,,Clear,0,2012-12-27 13:53:00
8:53 AM,7.0,3.0,84,30.32,10.0,Calm,Calm,-,N/A,,Clear,0,2012-12-27 14:53:00
9:53 AM,14.0,10.9,88,30.33,10.0,Calm,Calm,-,N/A,,Clear,0,2012-12-27 15:53:00
10:53 AM,21.9,14.0,72,30.32,10.0,Calm,Calm,-,N/A,,Clear,0,2012-12-27 16:53:00
11:53 AM,23.0,12.0,63,30.30,10.0,ESE,6.9,-,N/A,,Scattered Clouds,120,2012-12-27 17:53:00
12:35 PM,23.0,12.2,63,30.19,10.0,East,6.9,-,N/A,,Mostly Cloudy,80,2012-12-27 18:35:00
12:53 PM,23.0,12.0,63,30.27,10.0,East,5.8,-,N/A,,Overcast,100,2012-12-27 18:53:00
1:53 PM,23.0,12.0,63,30.25,10.0,ENE,5.8,-,N/A,,Overcast,60,2012-12-27 19:53:00
2:53 PM,23.0,12.0,63,30.27,10.0,East,4.6,-,N/A,,Overcast,90,2012-12-27 20:53:00
4:10 PM,23.0,12.2,63,30.18,10.0,East,3.5,-,N/A,,Overcast,80,2012-12-27 22:10:00
4:53 PM,23.0,12.0,63,30.26,10.0,Calm,Calm,-,N/A,,Overcast,0,2012-12-27 22:53:00
6:42 PM,21.2,12.2,68,30.16,10.0,Calm,Calm,-,N/A,,Overcast,0,2012-12-28 00:42:00
6:53 PM,21.0,12.9,71,30.25,10.0,ENE,3.5,-,N/A,,Overcast,60,2012-12-28 00:53:00
7:38 PM,21.2,12.2,68,30.16,10.0,NE,3.5,-,N/A,,Overcast,50,2012-12-28 01:38:00
7:53 PM,21.9,12.9,68,30.25,10.0,ENE,4.6,-,N/A,,Overcast,70,2012-12-28 01:53:00
8:53 PM,21.0,12.0,68,30.23,10.0,ENE,4.6,-,N/A,,Overcast,60,2012-12-28 02:53:00
9:53 PM,19.9,12.0,71,30.22,10.0,East,3.5,-,N/A,,Overcast,80,2012-12-28 03:53:00
10:53 PM,19.0,12.0,74,30.21,10.0,Calm,Calm,-,N/A,,Overcast,0,2012-12-28 04:53:00
11:53 PM,15.1,10.9,84,30.22,10.0,Calm,Calm,-,N/A,,Overcast,0,2012-12-28 05:53:00